Date,TemperatureHighF,TemperatureAvgF,TemperatureLowF,DewpointHighF,DewpointAvgF,DewpointLowF,HumidityHigh,HumidityAvg,HumidityLow,PressureMaxIn,PressureMinIn,WindSpeedMaxMPH,WindSpeedAvgMPH,GustSpeedMaxMPH,PrecipitationSumIn
2013-5-1,83,69,50,60,56,49,97,65,41,30.15,30.00,13,1,13,0.00
2013-5-2,79,68,56,59,55,53,93,66,44,30.17,30.06,13,2,16,0.00
2013-5-3,78,69,59,61,54,46,85,62,36,30.06,29.93,16,2,16,0.00
2013-5-4,73,64,55,52,46,40,73,52,32,30.01,29.94,15,2,15,0.00
2013-5-5,71,61,48,51,46,40,84,58,42,30.01,29.94,13,1,14,0.00
2013-5-6,74,64,50,54,48,41,76,58,44,30.00,29.91,10,1,10,0.00
2013-5-7,74,63,49,57,52,46,92,67,49,30.01,29.93,16,1,16,0.00
2013-5-8,79,64,49,56,52,48,97,69,38,29.99,29.92,15,1,15,0.00
2013-5-9,81,65,49,60,53,47,98,70,33,29.96,29.88,15,1,17,0.08
2013-5-10,69,61,47,61,56,44,96,85,68,29.88,29.74,18,3,18,0.22
2013-5-11,55,48,40,50,43,34,93,84,68,29.97,29.80,23,3,23,0.07
2013-5-12,50,42,34,34,32,28,89,67,44,30.13,29.97,18,3,18,0.00
2013-5-13,60,45,31,38,31,24,96,63,28,30.19,30.10,13,2,14,0.00
2013-5-14,85,65,43,61,46,31,79,50,32,30.10,29.68,18,3,19,0.00
2013-5-15,85,75,62,61,56,50,71,53,31,29.77,29.64,17,4,19,0.01
2013-5-16,83,68,50,56,48,38,96,56,24,29.94,29.76,10,1,10,0.00
2013-5-17,82,66,51,58,48,41,79,55,38,30.06,29.94,12,1,12,0.00
2013-5-18,81,67,52,62,52,40,76,59,48,30.08,29.96,8,1,8,0.00
2013-5-19,88,72,54,66,58,48,84,63,43,29.98,29.82,11,1,11,0.00
2013-5-20,88,77,68,71,67,63,90,71,51,29.87,29.77,18,3,18,0.00
2013-5-21,86,76,67,67,63,60,88,65,42,29.79,29.67,17,4,18,0.00
2013-5-22,78,70,63,66,63,60,91,78,56,29.72,29.61,20,3,20,0.28
2013-5-23,63,58,50,60,54,46,94,87,78,30.14,29.70,20,4,20,0.14
2013-5-24,63,51,40,46,40,35,91,69,37,30.34,30.14,18,4,18,0.00
2013-5-25,68,54,39,47,42,38,97,68,39,30.38,30.23,8,1,13,0.00
2013-5-26,72,57,40,45,41,37,94,59,31,30.32,30.17,10,1,10,0.00
2013-5-27,60,55,50,56,49,37,96,82,43,30.20,29.91,14,1,14,0.72
2013-5-28,80,70,57,70,65,56,98,83,67,29.93,29.81,18,3,19,0.36
2013-5-29,85,76,71,69,65,61,83,67,51,29.96,29.84,16,3,18,0.00
2013-5-30,88,77,68,71,66,61,85,69,51,30.02,29.89,20,4,20,0.00
2013-5-31,76,72,62,69,66,61,96,82,73,29.95,29.82,18,3,21,1.73